Time;durP1;ratioP1;P1;durP2;ratioP2;P2;SDS_P1;SDS_P2;PMS_P1;PMS_P2;Temp;Humidity;BMP_temperature;BMP_pressure;BME280_temperature;BME280_humidity;BME280_pressure;Samples;Min_cycle;Max_cycle;Signal;HPM_P1;HPM_P2
2022/09/23 00:00:36;;;;;;;0.77;0.77;;;9.40;99.90;;;;;;5057520;28;20182;-90
2022/09/23 00:03:01;;;;;;;1.67;1.27;;;9.40;99.90;;;;;;5075205;28;20264;-91
2022/09/23 00:05:28;;;;;;;1.27;1.17;;;9.30;99.90;;;;;;5057359;28;20272;-91
2022/09/23 00:07:55;;;;;;;0.93;0.87;;;9.30;99.90;;;;;;5075545;28;20681;-91
2022/09/23 00:10:21;;;;;;;2.10;1.57;;;9.40;99.90;;;;;;5074902;28;20209;-91
2022/09/23 00:12:47;;;;;;;3.37;1.20;;;9.70;99.90;;;;;;5074441;28;20238;-90
2022/09/23 00:15:13;;;;;;;0.73;0.73;;;9.30;99.90;;;;;;5074575;28;20176;-91
2022/09/23 00:17:39;;;;;;;1.87;1.47;;;9.30;99.90;;;;;;5075268;28;20180;-91
2022/09/23 00:20:05;;;;;;;1.80;1.40;;;9.30;99.90;;;;;;5057239;28;20171;-89
2022/09/23 00:22:32;;;;;;;1.10;1.10;;;9.30;99.90;;;;;;5074609;28;20187;-91
2022/09/23 00:24:57;;;;;;;1.10;0.97;;;10.20;99.90;;;;;;5057162;28;20591;-91
2022/09/23 00:27:23;;;;;;;1.57;1.47;;;9.20;99.90;;;;;;5074475;28;20237;-91
2022/09/23 00:29:48;;;;;;;1.03;0.93;;;9.20;99.90;;;;;;5057082;28;20577;-91
2022/09/23 00:32:14;;;;;;;0.80;0.80;;;9.20;99.90;;;;;;5057419;28;20203;-91
2022/09/23 00:34:42;;;;;;;2.10;1.73;;;9.10;99.90;;;;;;5075321;28;20593;-92
2022/09/23 00:37:08;;;;;;;2.53;1.30;;;9.40;99.90;;;;;;5057362;28;20206;-91
2022/09/23 00:39:33;;;;;;;0.97;0.97;;;10.40;99.90;;;;;;5057249;28;20632;-91
2022/09/23 00:41:59;;;;;;;1.23;1.13;;;9.90;99.90;;;;;;5057143;28;20187;-92
2022/09/23 00:44:49;;;;;;;0.90;0.90;;;10.10;99.90;;;;;;5074489;28;20273;-91
2022/09/23 00:47:20;;;;;;;1.67;1.57;;;9.10;99.90;;;;;;5074768;28;20217;-91
2022/09/23 00:49:51;;;;;;;1.10;1.07;;;9.10;99.90;;;;;;5056888;28;20225;-91
2022/09/23 00:52:22;;;;;;;1.13;1.03;;;9.00;99.90;;;;;;5074698;28;20214;-92
2022/09/23 00:54:51;;;;;;;4.30;1.73;;;9.90;99.90;;;;;;5074587;28;20155;-92
2022/09/23 00:57:18;;;;;;;1.63;1.50;;;9.00;99.90;;;;;;5074162;28;20172;-91
2022/09/23 00:59:45;;;;;;;3.57;2.00;;;9.40;99.90;;;;;;5076776;28;20171;-90
2022/09/23 01:02:13;;;;;;;1.10;1.10;;;8.90;99.90;;;;;;5098917;28;20228;-89
2022/09/23 01:04:39;;;;;;;1.33;1.23;;;9.50;99.90;;;;;;5098988;28;20164;-89
2022/09/23 01:07:05;;;;;;;2.40;2.20;;;;;;;;;;5099140;28;20278;-90
2022/09/23 01:09:31;;;;;;;1.63;1.23;;;8.80;99.90;;;;;;5081584;28;20175;-91
2022/09/23 01:12:08;;;;;;;1.53;1.43;;;8.90;99.90;;;;;;5098728;28;20179;-90
2022/09/23 01:14:34;;;;;;;1.83;1.67;;;8.80;99.90;;;;;;5098935;28;20171;-91
2022/09/23 01:17:21;;;;;;;2.47;1.47;;;8.90;99.90;;;;;;5098852;28;20242;-91
2022/09/23 01:19:58;;;;;;;1.23;1.17;;;9.90;99.90;;;;;;5081393;28;20189;-91
2022/09/23 01:22:32;;;;;;;1.80;1.60;;;8.70;99.90;;;;;;5098455;28;20159;-90
2022/09/23 01:25:31;;;;;;;1.50;1.20;;;9.90;99.90;;;;;;5097706;28;20151;-91
2022/09/23 01:28:25;;;;;;;1.47;1.33;;;8.60;99.90;;;;;;5098704;28;20211;-90
2022/09/23 01:31:22;;;;;;;2.03;1.50;;;8.50;99.90;;;;;;5079162;28;20246;-91
2022/09/23 01:33:53;;;;;;;2.07;1.83;;;8.50;99.90;;;;;;5075693;28;20164;-92
2022/09/23 01:36:54;;;;;;;1.70;1.60;;;8.50;99.90;;;;;;5074862;28;20209;-91
2022/09/23 01:39:41;;;;;;;1.20;1.10;;;8.50;99.90;;;;;;5061556;28;20195;-91
2022/09/23 01:42:46;;;;;;;1.63;1.53;;;8.40;99.90;;;;;;5076055;28;20178;-92
2022/09/23 01:45:34;;;;;;;1.20;1.17;;;8.40;99.90;;;;;;5064567;28;20187;-92
2022/09/23 01:48:12;;;;;;;3.70;1.20;;;8.30;99.90;;;;;;5076929;28;20151;-92
2022/09/23 01:50:57;;;;;;;1.90;1.73;;;8.30;99.90;;;;;;5075687;28;20181;-92
2022/09/23 01:53:32;;;;;;;1.50;1.40;;;8.30;99.90;;;;;;5058383;28;20185;-92
2022/09/23 01:56:42;;;;;;;1.10;1.10;;;8.20;99.90;;;;;;5076605;28;20188;-92
2022/09/23 01:59:17;;;;;;;1.80;1.57;;;8.20;99.90;;;;;;5072285;28;20584;-91
2022/09/23 02:02:04;;;;;;;1.43;1.33;;;8.20;99.90;;;;;;5059106;28;20181;-92
2022/09/23 02:04:46;;;;;;;3.70;2.60;;;8.20;99.90;;;;;;5075998;28;20163;-92
2022/09/23 02:07:19;;;;;;;1.53;1.43;;;8.20;99.90;;;;;;5075952;28;20521;-91
2022/09/23 02:09:54;;;;;;;2.37;2.17;;;8.10;99.90;;;;;;5075457;28;20553;-92
2022/09/23 02:12:25;;;;;;;2.67;1.90;;;9.30;99.90;;;;;;5075919;28;20238;-91
2022/09/23 02:15:01;;;;;;;0.97;0.97;;;8.00;99.90;;;;;;5075803;28;20159;-92
2022/09/23 02:17:35;;;;;;;1.47;1.23;;;8.00;99.90;;;;;;5075676;28;20158;-92
2022/09/23 02:20:05;;;;;;;1.53;1.43;;;8.80;99.90;;;;;;5075260;28;20159;-91
2022/09/23 02:22:47;;;;;;;2.37;1.50;;;8.00;99.90;;;;;;5074125;28;20179;-92
2022/09/23 02:25:16;;;;;;;1.97;1.77;;;6.40;99.90;;;;;;5074636;28;20164;-92
2022/09/23 02:27:46;;;;;;;1.73;1.40;;;8.00;99.90;;;;;;5056159;28;20589;-91
2022/09/23 02:30:19;;;;;;;1.60;1.27;;;8.00;99.90;;;;;;5056581;28;20258;-92
2022/09/23 02:32:53;;;;;;;1.70;1.27;;;8.00;99.90;;;;;;5074755;28;20199;-92
2022/09/23 02:35:24;;;;;;;0.77;0.77;;;8.20;99.90;;;;;;5075497;28;20182;-92
2022/09/23 02:38:15;;;;;;;1.37;1.20;;;8.00;99.90;;;;;;5079316;28;20163;-92
2022/09/23 02:40:49;;;;;;;1.60;1.50;;;8.00;99.90;;;;;;5053791;28;20259;-92
2022/09/23 02:43:19;;;;;;;1.63;1.30;;;8.50;99.90;;;;;;5084548;28;20189;-91
2022/09/23 02:45:45;;;;;;;2.07;1.60;;;8.00;99.90;;;;;;5085130;28;20186;-91
2022/09/23 02:48:25;;;;;;;1.57;1.47;;;8.00;99.90;;;;;;5069610;28;20280;-91
2022/09/23 02:50:51;;;;;;;2.83;2.17;;;8.00;99.90;;;;;;5074359;28;20167;-92
2022/09/23 02:53:17;;;;;;;1.70;1.57;;;8.00;99.90;;;;;;5072164;28;20643;-91
2022/09/23 02:55:42;;;;;;;5.77;2.17;;;8.00;99.90;;;;;;5088682;28;20187;-92
2022/09/23 02:58:11;;;;;;;4.73;2.43;;;8.00;99.90;;;;;;5091604;28;20188;-92
2022/09/23 03:01:15;;;;;;;1.03;1.03;;;9.80;99.90;;;;;;5086327;28;20186;-90
2022/09/23 03:04:20;;;;;;;2.10;1.63;;;8.00;99.90;;;;;;5067615;28;20273;-90
2022/09/23 03:06:48;;;;;;;1.53;1.43;;;8.00;99.90;;;;;;5047050;28;20191;-91
2022/09/23 03:09:32;;;;;;;2.97;1.80;;;8.10;99.90;;;;;;5088447;28;20182;-91
2022/09/23 03:12:34;;;;;;;1.73;1.60;;;8.00;99.90;;;;;;5087209;28;20209;-91
2022/09/23 03:15:08;;;;;;;1.40;1.40;;;8.30;99.90;;;;;;5049715;28;20187;-91
2022/09/23 03:17:42;;;;;;;2.03;1.50;;;8.00;99.90;;;;;;5076767;28;20631;-91
2022/09/23 03:20:33;;;;;;;1.13;1.13;;;8.10;99.90;;;;;;5076962;28;20167;-91
2022/09/23 03:23:02;;;;;;;1.83;1.70;;;8.10;99.90;;;;;;5059014;28;20607;-91
2022/09/23 03:25:33;;;;;;;1.47;1.37;;;8.10;99.90;;;;;;5076329;28;20540;-91
2022/09/23 03:28:00;;;;;;;1.73;1.63;;;8.10;99.90;;;;;;5076753;28;20247;-92
2022/09/23 03:30:26;;;;;;;2.47;1.30;;;8.10;99.90;;;;;;5075783;28;20226;-90
2022/09/23 03:32:54;;;;;;;1.67;1.50;;;8.10;99.90;;;;;;5059145;28;20213;-91
2022/09/23 03:35:23;;;;;;;2.43;2.03;;;8.10;99.90;;;;;;5059026;28;20175;-92
2022/09/23 03:38:07;;;;;;;1.87;1.77;;;8.20;99.90;;;;;;5076765;28;20167;-91
2022/09/23 03:40:40;;;;;;;1.77;1.67;;;8.10;99.90;;;;;;5076235;28;20263;-92
2022/09/23 03:43:06;;;;;;;2.23;2.00;;;8.10;99.90;;;;;;5076819;28;20174;-91
2022/09/23 03:45:33;;;;;;;2.03;1.83;;;8.10;99.90;;;;;;5058642;28;20184;-91
2022/09/23 03:47:59;;;;;;;1.37;1.30;;;8.80;99.90;;;;;;5075806;28;20204;-91
2022/09/23 03:50:25;;;;;;;2.07;1.83;;;8.10;99.90;;;;;;5076371;28;20172;-91
2022/09/23 03:52:51;;;;;;;2.17;1.97;;;8.10;99.90;;;;;;5076071;28;20211;-91
2022/09/23 03:55:18;;;;;;;2.27;2.00;;;8.00;99.90;;;;;;5076446;28;20672;-91
2022/09/23 03:57:44;;;;;;;1.67;1.57;;;8.00;99.90;;;;;;5075480;28;20298;-91
2022/09/23 04:00:11;;;;;;;4.07;1.40;;;8.60;99.90;;;;;;5075707;28;20262;-91
2022/09/23 04:02:37;;;;;;;1.60;1.47;;;8.10;99.90;;;;;;5057963;28;20175;-91
2022/09/23 04:05:04;;;;;;;2.17;1.97;;;8.00;99.90;;;;;;5076157;28;20620;-91
2022/09/23 04:07:29;;;;;;;1.70;1.60;;;8.00;99.90;;;;;;5058162;28;20652;-91
2022/09/23 04:09:55;;;;;;;1.27;1.20;;;8.00;99.90;;;;;;5075431;28;20187;-91
2022/09/23 04:12:21;;;;;;;1.87;1.70;;;8.10;99.90;;;;;;5065207;28;20207;-91
2022/09/23 04:14:47;;;;;;;1.93;1.80;;;9.70;99.90;;;;;;5064280;28;20513;-91
2022/09/23 04:17:12;;;;;;;1.57;1.47;;;8.10;99.90;;;;;;5066724;28;20184;-91
2022/09/23 04:19:38;;;;;;;2.37;1.93;;;8.10;99.90;;;;;;5046826;28;20711;-91
2022/09/23 04:22:04;;;;;;;1.57;1.47;;;8.10;99.90;;;;;;5054827;28;20632;-91
2022/09/23 04:24:29;;;;;;;2.27;2.07;;;8.90;99.90;;;;;;5054893;28;20651;-91
2022/09/23 04:26:56;;;;;;;1.90;1.80;;;9.70;99.90;;;;;;5037175;28;20180;-91
2022/09/23 04:29:23;;;;;;;1.63;1.53;;;9.10;99.90;;;;;;5055628;28;20227;-90
2022/09/23 04:31:49;;;;;;;2.67;1.90;;;8.20;99.90;;;;;;5054493;28;20321;-91
2022/09/23 04:34:16;;;;;;;1.77;1.67;;;9.20;99.90;;;;;;5054108;28;20250;-91
2022/09/23 04:36:45;;;;;;;1.90;1.43;;;9.30;99.90;;;;;;5053944;28;20644;-90
2022/09/23 04:39:12;;;;;;;1.83;1.73;;;8.10;99.90;;;;;;5053674;28;20168;-91
2022/09/23 04:41:38;;;;;;;2.73;1.43;;;8.10;99.90;;;;;;5053799;28;20184;-91
2022/09/23 04:44:03;;;;;;;1.90;1.80;;;8.10;99.90;;;;;;5035988;28;20196;-90
2022/09/23 04:46:29;;;;;;;2.20;2.00;;;9.20;99.90;;;;;;5053474;28;20660;-90
2022/09/23 04:48:55;;;;;;;2.07;1.97;;;8.10;99.90;;;;;;5053755;28;20202;-91
2022/09/23 04:51:23;;;;;;;3.23;2.53;;;8.20;99.90;;;;;;5053678;28;20656;-90
2022/09/23 04:53:50;;;;;;;2.10;1.90;;;8.10;99.90;;;;;;5035702;28;20585;-91
2022/09/23 04:56:27;;;;;;;3.80;2.13;;;8.10;99.90;;;;;;5053570;28;20184;-91
2022/09/23 04:58:56;;;;;;;2.67;2.33;;;8.10;99.90;;;;;;5053408;28;20514;-90
2022/09/23 05:01:25;;;;;;;3.70;2.57;;;8.20;99.90;;;;;;5053331;28;20587;-91
2022/09/23 05:04:12;;;;;;;4.33;2.90;;;8.30;99.90;;;;;;5053614;28;20259;-90
2022/09/23 05:06:38;;;;;;;2.67;2.37;;;8.90;99.90;;;;;;5019620;28;20640;-89
2022/09/23 05:09:06;;;;;;;2.43;2.13;;;8.90;99.90;;;;;;5038895;28;20183;-90
2022/09/23 05:11:32;;;;;;;2.80;2.30;;;8.20;99.90;;;;;;5073421;28;21090;-90
2022/09/23 05:13:58;;;;;;;1.90;1.80;;;8.90;99.90;;;;;;5046875;28;20290;-90
2022/09/23 05:16:25;;;;;;;2.23;2.07;;;8.80;99.90;;;;;;5048520;28;20611;-92
2022/09/23 05:18:52;;;;;;;3.23;2.23;;;8.20;99.90;;;;;;5079161;28;20198;-90
2022/09/23 05:21:20;;;;;;;2.77;2.57;;;9.60;99.90;;;;;;5076303;28;20202;-89
2022/09/23 05:23:59;;;;;;;4.00;1.67;;;9.40;99.90;;;;;;5065426;28;20182;-90
2022/09/23 05:26:29;;;;;;;1.80;1.70;;;8.20;99.90;;;;;;5076078;28;20242;-90
2022/09/23 05:28:55;;;;;;;2.90;2.07;;;8.20;99.90;;;;;;5051136;28;20221;-89
2022/09/23 05:31:23;;;;;;;1.83;1.70;;;8.30;99.90;;;;;;5060478;28;20215;-90
2022/09/23 05:33:52;;;;;;;2.90;2.63;;;8.30;99.90;;;;;;5061638;28;20183;-92
2022/09/23 05:36:21;;;;;;;4.63;2.33;;;8.30;99.90;;;;;;5073974;28;20187;-89
2022/09/23 05:38:48;;;;;;;1.73;1.63;;;8.40;99.90;;;;;;5061208;28;20220;-92
2022/09/23 05:41:15;;;;;;;2.87;2.40;;;9.40;99.90;;;;;;5081220;28;20191;-91
2022/09/23 05:43:40;;;;;;;2.53;1.90;;;9.20;99.90;;;;;;5055731;28;20171;-90
2022/09/23 05:46:11;;;;;;;2.70;2.50;;;8.40;99.90;;;;;;5065390;28;20194;-90
2022/09/23 05:48:38;;;;;;;6.07;2.63;;;8.40;99.90;;;;;;5094377;28;20187;-91
2022/09/23 05:51:11;;;;;;;5.23;3.87;;;8.50;99.90;;;;;;5096463;28;20211;-88
2022/09/23 05:53:38;;;;;;;2.13;1.80;;;8.50;99.90;;;;;;5093237;28;20239;-90
2022/09/23 05:56:04;;;;;;;3.60;2.50;;;8.50;99.90;;;;;;5107563;28;20250;-89
2022/09/23 05:58:30;;;;;;;3.33;2.67;;;8.50;99.90;;;;;;5093798;28;20174;-90
2022/09/23 06:00:56;;;;;;;4.63;2.50;;;8.60;99.90;;;;;;5091353;28;20194;-90
2022/09/23 06:03:23;;;;;;;3.33;2.43;;;9.50;99.90;;;;;;5081884;28;20648;-90
2022/09/23 06:05:55;;;;;;;2.50;2.30;;;8.60;99.90;;;;;;5054158;28;20191;-91
2022/09/23 06:08:22;;;;;;;2.23;1.73;;;8.70;99.90;;;;;;5036108;28;20240;-91
2022/09/23 06:10:48;;;;;;;2.47;1.90;;;8.70;99.90;;;;;;5058875;28;20274;-90
2022/09/23 06:13:17;;;;;;;2.70;2.03;;;10.20;99.90;;;;;;5076262;28;20220;-90
2022/09/23 06:15:43;;;;;;;2.27;1.53;;;8.80;99.90;;;;;;5074751;28;20183;-89
2022/09/23 06:18:09;;;;;;;2.23;1.90;;;8.90;99.90;;;;;;5055901;28;20191;-91
2022/09/23 06:20:35;;;;;;;1.43;1.37;;;8.90;99.90;;;;;;5047817;28;20198;-91
2022/09/23 06:23:04;;;;;;;2.63;2.30;;;8.90;99.90;;;;;;5065914;28;20183;-92
2022/09/23 06:25:31;;;;;;;3.27;2.47;;;8.90;99.90;;;;;;5073803;28;20187;-90
2022/09/23 06:27:58;;;;;;;2.33;2.00;;;9.50;99.90;;;;;;5063237;28;20257;-90
2022/09/23 06:30:25;;;;;;;4.70;2.93;;;9.00;99.90;;;;;;5065921;28;20699;-91
2022/09/23 06:32:52;;;;;;;2.03;1.90;;;9.00;99.90;;;;;;5048216;28;20234;-88
2022/09/23 06:35:18;;;;;;;2.73;2.27;;;9.00;99.90;;;;;;5047956;28;20187;-89
2022/09/23 06:37:44;;;;;;;3.23;2.53;;;8.90;99.90;;;;;;5069091;28;20655;-89
2022/09/23 06:40:11;;;;;;;3.17;1.87;;;9.00;99.90;;;;;;5067624;28;20233;-88
2022/09/23 06:42:36;;;;;;;3.43;2.93;;;8.90;99.90;;;;;;5058230;28;20244;-89
2022/09/23 06:45:02;;;;;;;3.10;2.50;;;8.80;99.90;;;;;;5077651;28;20187;-88
2022/09/23 06:47:30;;;;;;;4.17;2.33;;;8.80;99.90;;;;;;5069706;28;20199;-89
2022/09/23 06:49:56;;;;;;;3.17;2.40;;;8.90;99.90;;;;;;5072896;28;20263;-90
2022/09/23 06:52:21;;;;;;;4.27;2.97;;;9.70;99.90;;;;;;5075282;28;20226;-91
2022/09/23 06:54:47;;;;;;;2.17;1.97;;;10.10;99.90;;;;;;5076602;28;20187;-90
2022/09/23 06:57:13;;;;;;;2.60;2.37;;;8.80;99.90;;;;;;5074849;28;20190;-90
2022/09/23 06:59:39;;;;;;;3.50;2.37;;;9.40;99.90;;;;;;5067151;28;20233;-92
2022/09/23 07:02:05;;;;;;;2.37;2.17;;;8.90;99.90;;;;;;5060126;28;20266;-93
2022/09/23 07:04:31;;;;;;;3.00;2.70;;;9.30;99.90;;;;;;5101016;28;20187;-92
2022/09/23 07:06:56;;;;;;;2.27;2.07;;;9.00;99.90;;;;;;5111191;28;20230;-91
2022/09/23 07:09:22;;;;;;;1.93;1.73;;;9.00;99.90;;;;;;5095433;28;20214;-90
2022/09/23 07:11:48;;;;;;;2.60;1.97;;;10.10;99.90;;;;;;5084694;28;20491;-92
2022/09/23 07:14:13;;;;;;;1.87;1.77;;;9.00;99.90;;;;;;5100637;28;20175;-93
2022/09/23 07:16:40;;;;;;;1.93;1.73;;;9.00;99.90;;;;;;5081154;28;20204;-92
2022/09/23 07:19:06;;;;;;;3.43;2.23;;;9.90;99.90;;;;;;5094724;28;20199;-90
2022/09/23 07:21:31;;;;;;;2.33;2.13;;;9.00;99.90;;;;;;5074975;28;20247;-91
2022/09/23 07:23:57;;;;;;;2.30;2.07;;;8.90;99.90;;;;;;5104277;28;20179;-91
2022/09/23 07:26:23;;;;;;;2.60;2.40;;;8.90;99.90;;;;;;5103616;28;20190;-89
2022/09/23 07:29:03;;;;;;;3.80;2.33;;;8.90;99.90;;;;;;5120771;28;20183;-91
2022/09/23 07:31:29;;;;;;;3.33;2.57;;;9.20;99.90;;;;;;5101177;28;20265;-91
2022/09/23 07:33:56;;;;;;;2.37;2.27;;;10.40;99.90;;;;;;5119650;28;20250;-91
2022/09/23 07:36:23;;;;;;;2.70;1.87;;;9.90;99.90;;;;;;5103661;28;20243;-91
2022/09/23 07:38:48;;;;;;;3.97;2.80;;;9.10;99.90;;;;;;5121188;28;20159;-92
2022/09/23 07:41:16;;;;;;;4.30;3.10;;;9.20;99.90;;;;;;5103693;28;20227;-91
2022/09/23 07:43:43;;;;;;;3.27;2.23;;;9.30;99.90;;;;;;5102464;28;20198;-93
2022/09/23 07:46:14;;;;;;;3.17;2.93;;;9.40;99.90;;;;;;5080648;28;20175;-91
2022/09/23 07:48:40;;;;;;;2.47;2.30;;;9.70;99.90;;;;;;5096883;28;20163;-92
2022/09/23 07:51:19;;;;;;;5.77;3.50;;;9.70;99.90;;;;;;5097037;28;20542;-93
2022/09/23 07:53:49;;;;;;;4.23;3.20;;;9.70;99.90;;;;;;5097703;28;20163;-91
2022/09/23 07:56:17;;;;;;;4.33;3.37;;;9.70;99.90;;;;;;5061710;28;20214;-92
2022/09/23 07:58:43;;;;;;;2.43;1.80;;;10.10;99.90;;;;;;5078720;28;20193;-93
2022/09/23 08:01:11;;;;;;;3.40;2.90;;;10.90;99.90;;;;;;5079223;28;20186;-93
2022/09/23 08:03:38;;;;;;;2.63;2.30;;;9.70;99.90;;;;;;5080019;28;20597;-93
2022/09/23 08:06:09;;;;;;;4.13;3.60;;;9.80;99.90;;;;;;5099111;28;20635;-93
2022/09/23 08:08:39;;;;;;;3.37;2.50;;;10.50;99.90;;;;;;5103377;28;20261;-94
2022/09/23 08:11:06;;;;;;;4.83;3.53;;;9.80;99.90;;;;;;5065761;28;20214;-93
2022/09/23 08:13:33;;;;;;;2.87;2.50;;;11.90;99.90;;;;;;5066231;28;20183;-93
2022/09/23 08:15:59;;;;;;;2.10;1.90;;;10.60;99.90;;;;;;5099148;28;20171;-93
2022/09/23 08:18:25;;;;;;;2.37;2.07;;;10.60;99.90;;;;;;5079829;28;20546;-93
2022/09/23 08:20:51;;;;;;;2.83;2.40;;;10.70;99.90;;;;;;5097138;28;20175;-93
2022/09/23 08:23:18;;;;;;;3.28;2.13;;;10.70;99.90;;;;;;5079422;28;20643;-92
2022/09/23 08:25:47;;;;;;;2.97;2.17;;;10.70;99.90;;;;;;5063424;28;20179;-92
2022/09/23 08:28:15;;;;;;;3.90;2.27;;;10.80;99.90;;;;;;5046470;28;20179;-93
2022/09/23 08:30:42;;;;;;;3.70;2.77;;;10.90;99.90;;;;;;5079253;28;20229;-93
2022/09/23 08:33:09;;;;;;;2.40;2.03;;;11.00;99.90;;;;;;5096081;28;20314;-93
2022/09/23 08:35:35;;;;;;;1.90;1.52;;;11.20;99.90;;;;;;5096509;28;20175;-94
2022/09/23 08:38:01;;;;;;;3.03;2.45;;;11.40;99.90;;;;;;5079477;28;20186;-94
2022/09/23 08:40:26;;;;;;;1.83;1.42;;;11.40;99.90;;;;;;5079059;28;20178;-93
2022/09/23 08:42:52;;;;;;;3.45;1.88;;;11.60;99.90;;;;;;5077856;28;20277;-91
2022/09/23 08:45:25;;;;;;;2.28;2.08;;;11.80;99.90;;;;;;5077637;28;20182;-93
2022/09/23 08:47:53;;;;;;;3.83;1.92;;;12.20;99.90;;;;;;5096092;28;20228;-93
2022/09/23 08:50:22;;;;;;;3.42;2.42;;;12.00;99.90;;;;;;5095899;28;20213;-93
2022/09/23 08:52:55;;;;;;;3.33;2.42;;;11.80;99.90;;;;;;5078771;28;20237;-94
2022/09/23 08:55:33;;;;;;;3.97;1.73;;;11.60;99.90;;;;;;5096090;28;20181;-94
2022/09/23 08:58:37;;;;;;;2.67;1.75;;;11.40;99.90;;;;;;5077628;28;20177;-94
2022/09/23 09:01:32;;;;;;;1.98;1.75;;;11.40;99.90;;;;;;5096504;28;20170;-94
2022/09/23 09:04:01;;;;;;;1.63;1.45;;;11.40;99.90;;;;;;5095218;28;20195;-93
2022/09/23 09:06:47;;;;;;;2.33;2.10;;;11.50;99.90;;;;;;5077191;28;20261;-93
2022/09/23 09:09:38;;;;;;;1.55;1.45;;;11.70;99.90;;;;;;5095673;28;20158;-94
2022/09/23 09:12:10;;;;;;;3.00;1.80;;;11.80;99.90;;;;;;5080596;28;20650;-94
2022/09/23 09:14:46;;;;;;;2.35;1.50;;;11.90;99.90;;;;;;5095393;28;20615;-93
2022/09/23 09:17:45;;;;;;;1.52;1.42;;;12.00;99.90;;;;;;5098110;28;20154;-93
2022/09/23 09:20:16;;;;;;;1.50;1.40;;;12.00;99.90;;;;;;5078203;28;20184;-94
2022/09/23 09:22:56;;;;;;;2.85;1.50;;;12.20;99.90;;;;;;5066803;28;20179;-92
2022/09/23 09:25:50;;;;;;;2.47;1.45;;;12.20;99.90;;;;;;5074881;28;20264;-94
2022/09/23 09:28:23;;;;;;;1.65;1.52;;;12.30;99.90;;;;;;5074796;28;20164;-93
2022/09/23 09:30:58;;;;;;;1.50;1.25;;;12.30;99.90;;;;;;5075851;28;20219;-93
2022/09/23 09:33:31;;;;;;;1.45;1.15;;;12.30;99.90;;;;;;5083030;28;20171;-90
2022/09/23 09:36:18;;;;;;;1.70;1.02;;;12.40;99.90;;;;;;5065020;28;20565;-93
2022/09/23 09:38:43;;;;;;;1.80;1.50;;;12.50;99.90;;;;;;5082132;28;20240;-93
2022/09/23 09:41:17;;;;;;;1.90;1.63;;;12.70;99.90;;;;;;5060922;28;20545;-94
2022/09/23 09:43:51;;;;;;;2.22;1.67;;;12.70;99.90;;;;;;5074089;28;20199;-93
2022/09/23 09:46:43;;;;;;;2.17;1.98;;;12.70;99.90;;;;;;5078393;28;20164;-91
2022/09/23 09:49:24;;;;;;;1.20;1.15;;;12.80;99.90;;;;;;5074008;28;20160;-93
2022/09/23 09:52:30;;;;;;;2.50;1.85;;;12.90;99.90;;;;;;5060287;28;20195;-92
2022/09/23 09:55:25;;;;;;;1.17;1.05;;;13.00;99.90;;;;;;4957903;28;20189;-94
2022/09/23 09:58:03;;;;;;;0.93;0.90;;;12.90;99.90;;;;;;5074878;28;20176;-94
2022/09/23 10:00:29;;;;;;;1.45;0.93;;;13.20;99.90;;;;;;5061860;28;20257;-93
2022/09/23 10:03:01;;;;;;;2.22;1.50;;;13.10;99.90;;;;;;5078593;28;20184;-93
2022/09/23 10:05:51;;;;;;;2.90;1.10;;;13.10;99.90;;;;;;5064873;28;20167;-93
2022/09/23 10:08:31;;;;;;;1.13;0.95;;;13.20;99.90;;;;;;5079813;28;20167;-92
2022/09/23 10:10:59;;;;;;;1.73;1.35;;;13.30;99.90;;;;;;5083856;28;20167;-94
2022/09/23 10:13:28;;;;;;;0.93;0.85;;;13.20;99.90;;;;;;5067962;28;20179;-93
2022/09/23 10:15:58;;;;;;;1.05;0.95;;;13.20;99.90;;;;;;5074229;28;20179;-92
2022/09/23 10:18:36;;;;;;;0.93;0.88;;;13.30;99.90;;;;;;5056444;28;20205;-95
2022/09/23 10:21:08;;;;;;;1.98;0.93;;;13.40;99.90;;;;;;5082446;28;20289;-94
2022/09/23 10:23:39;;;;;;;3.20;1.35;;;13.40;99.90;;;;;;5055653;28;20167;-93
2022/09/23 10:26:10;;;;;;;2.35;1.63;;;13.60;99.90;;;;;;5066931;28;20191;-92
2022/09/23 10:28:40;;;;;;;1.10;1.05;;;13.30;99.90;;;;;;5061898;28;20175;-93
2022/09/23 10:31:15;;;;;;;0.90;0.82;;;13.10;99.90;;;;;;5072870;28;20250;-93
2022/09/23 10:33:58;;;;;;;0.90;0.90;;;12.90;99.90;;;;;;5069866;28;20174;-93
2022/09/23 10:36:24;;;;;;;0.90;0.80;;;12.80;99.90;;;;;;5071686;28;20163;-92
2022/09/23 10:46:36;;;;;;;1.48;0.88;;;12.60;99.90;;;;;;5066846;28;20631;-93
2022/09/23 10:48:23;;;;;;;0.90;0.90;;;12.60;99.90;;;;;;5056214;28;20300;-93
2022/09/23 10:50:51;;;;;;;1.27;0.70;;;12.70;99.90;;;;;;5054038;28;20188;-92
2022/09/23 10:53:31;;;;;;;2.42;0.82;;;12.80;99.90;;;;;;5042628;28;20187;-91
2022/09/23 10:56:20;;;;;;;0.80;0.80;;;12.90;99.90;;;;;;5054225;28;20206;-94
2022/09/23 10:59:17;;;;;;;0.68;0.68;;;12.80;99.90;;;;;;5038622;28;20184;-93
2022/09/23 11:02:12;;;;;;;0.57;0.57;;;12.90;99.90;;;;;;5058649;28;20314;-94
2022/09/23 11:04:49;;;;;;;0.60;0.60;;;13.00;99.90;;;;;;5047507;28;20258;-90
2022/09/23 11:07:18;;;;;;;2.58;0.63;;;13.20;99.90;;;;;;5049257;28;20181;-92
2022/09/23 11:10:12;;;;;;;0.63;0.60;;;13.30;99.90;;;;;;5046724;28;20628;-94
2022/09/23 11:13:02;;;;;;;0.77;0.70;;;13.40;99.90;;;;;;5069306;28;20670;-93
2022/09/23 11:15:34;;;;;;;0.80;0.80;;;13.60;99.90;;;;;;5066945;28;20633;-94
2022/09/23 11:18:21;;;;;;;0.68;0.68;;;13.60;99.90;;;;;;5050159;28;20221;-95
2022/09/23 11:20:55;;;;;;;0.50;0.50;;;13.60;99.90;;;;;;5049448;28;20230;-94
2022/09/23 11:23:46;;;;;;;1.55;0.73;;;13.50;99.90;;;;;;5047646;28;20234;-92
2022/09/23 11:26:30;;;;;;;0.90;0.90;;;13.50;99.90;;;;;;5067333;28;20160;-94
2022/09/23 11:29:34;;;;;;;1.45;0.68;;;13.60;99.90;;;;;;5046758;28;20175;-91
2022/09/23 11:32:26;;;;;;;0.60;0.60;;;13.50;99.90;;;;;;5046362;28;20195;-94
2022/09/23 11:34:55;;;;;;;0.90;0.60;;;13.40;99.90;;;;;;5024676;28;20241;-91
2022/09/23 11:37:30;;;;;;;0.75;0.60;;;13.50;99.90;;;;;;5065653;28;20163;-92
2022/09/23 11:40:18;;;;;;;0.60;0.60;;;13.50;99.90;;;;;;5070464;28;20248;-93
2022/09/23 11:43:10;;;;;;;1.25;0.98;;;13.50;99.90;;;;;;5065718;28;20168;-92
2022/09/23 11:45:45;;;;;;;0.95;0.68;;;13.50;99.90;;;;;;5053630;28;20195;-95
2022/09/23 11:48:17;;;;;;;0.63;0.63;;;13.50;99.90;;;;;;5066405;28;20170;-94
2022/09/23 11:50:54;;;;;;;0.70;0.50;;;13.60;99.90;;;;;;5061298;28;20500;-90
2022/09/23 11:53:45;;;;;;;1.08;0.50;;;13.50;99.90;;;;;;5066361;28;20207;-91
2022/09/23 11:56:30;;;;;;;0.85;0.60;;;13.50;99.90;;;;;;5052614;28;20175;-93
2022/09/23 11:59:14;;;;;;;0.75;0.65;;;13.70;99.90;;;;;;5061140;28;20179;-92
2022/09/23 12:01:53;;;;;;;0.50;0.50;;;13.70;99.90;;;;;;5063372;28;20182;-90
2022/09/23 12:04:33;;;;;;;0.70;0.70;;;13.70;99.90;;;;;;5066383;28;20160;-91
2022/09/23 12:07:09;;;;;;;0.77;0.43;;;13.60;99.90;;;;;;5062964;28;20262;-92
2022/09/23 12:10:06;;;;;;;0.40;0.40;;;13.70;99.90;;;;;;5060940;28;20172;-91
2022/09/23 12:12:55;;;;;;;0.68;0.52;;;13.80;99.90;;;;;;5055146;28;20195;-91
2022/09/23 12:16:01;;;;;;;0.65;0.60;;;13.80;99.90;;;;;;5055319;28;20161;-89
2022/09/23 12:18:41;;;;;;;0.55;0.55;;;13.80;99.90;;;;;;5053468;28;20168;-89
2022/09/23 12:21:15;;;;;;;0.93;0.77;;;13.80;99.90;;;;;;5055075;28;20911;-90
2022/09/23 12:24:19;;;;;;;0.80;0.80;;;13.80;99.90;;;;;;5054277;28;20647;-91
2022/09/23 12:26:49;;;;;;;1.40;0.90;;;13.90;99.90;;;;;;5055583;28;20175;-92
2022/09/23 12:29:15;;;;;;;0.57;0.57;;;13.90;99.90;;;;;;5036771;28;20263;-91
2022/09/23 12:31:43;;;;;;;0.60;0.60;;;13.90;99.90;;;;;;5037636;28;20238;-93
2022/09/23 12:34:27;;;;;;;1.08;0.77;;;14.00;99.90;;;;;;5038116;28;20195;-94
2022/09/23 12:36:53;;;;;;;1.10;0.88;;;13.80;97.20;;;;;;5056269;28;20164;-94
2022/09/23 12:39:36;;;;;;;0.50;0.50;;;14.00;97.60;;;;;;5062618;28;20237;-93
2022/09/23 12:42:05;;;;;;;0.50;0.50;;;14.00;96.70;;;;;;5043956;28;20589;-91
2022/09/23 12:44:40;;;;;;;0.55;0.55;;;14.00;96.70;;;;;;5067707;28;20179;-92
2022/09/23 12:47:24;;;;;;;0.75;0.73;;;14.00;95.40;;;;;;5077969;28;20173;-93
2022/09/23 12:49:55;;;;;;;0.55;0.55;;;14.10;94.60;;;;;;5074282;28;20199;-91
2022/09/23 12:52:32;;;;;;;0.52;0.50;;;14.20;92.20;;;;;;5074698;28;20671;-90
2022/09/23 12:55:20;;;;;;;1.02;0.50;;;14.40;90.50;;;;;;5052838;28;20264;-88
2022/09/23 12:57:47;;;;;;;0.75;0.70;;;14.60;91.40;;;;;;5044091;28;20186;-91
2022/09/23 13:00:17;;;;;;;1.65;0.77;;;14.80;92.40;;;;;;5045930;28;20249;-92
2022/09/23 13:08:40;;;;;;;0.57;0.57;;;15.10;90.20;;;;;;5056596;28;20183;-92
2022/09/23 13:11:21;;;;;;;1.10;0.85;;;15.10;90.20;;;;;;5055307;28;20175;-88
2022/09/23 13:13:48;;;;;;;0.40;0.40;;;15.10;89.40;;;;;;5056985;28;20225;-91
2022/09/23 13:16:24;;;;;;;0.73;0.65;;;15.00;90.80;;;;;;5039075;28;20180;-94
2022/09/23 13:18:59;;;;;;;0.77;0.75;;;15.00;91.10;;;;;;5064173;28;20214;-93
2022/09/23 13:21:46;;;;;;;0.63;0.63;;;14.90;91.50;;;;;;5098958;28;20166;-93
2022/09/23 13:24:22;;;;;;;0.40;0.40;;;14.90;91.00;;;;;;5098338;28;20186;-95
2022/09/23 13:27:10;;;;;;;0.57;0.57;;;14.80;90.50;;;;;;5093757;28;20171;-94
2022/09/23 13:29:37;;;;;;;0.77;0.63;;;14.80;90.30;;;;;;5083729;28;20226;-92
2022/09/23 13:32:05;;;;;;;0.73;0.73;;;15.00;91.50;;;;;;5061588;28;20192;-90
2022/09/23 13:34:37;;;;;;;0.50;0.50;;;15.10;90.90;;;;;;5061897;28;20203;-92
2022/09/23 13:37:24;;;;;;;0.57;0.57;;;14.90;91.40;;;;;;5061871;28;20199;-91